Metar Cercanos

 

LEPA - Palma De Mallorc, Spain
Distance from station: ONO 38km
Actualización: Fri, 07-Oct-2022 7:30am CEST
Few Clouds
Few Clouds
 Viento del ENE
Viento: ENE 11 km/h
Temperatura: 19°C
Rocío: 17°C
Humedad: 88%
Barómetro: 1021 hPa
Clouds: Few Clouds
Visibility: 10 km
Cloud details: Few Clouds 610 m
Few Clouds 914 m
2022/10/07 05:30 LEPA 070530Z 06006KT 9999 FEW020 FEW030TCU 19/17 Q1021 NOSIG
LEMH - Mahon/Menorca Is, Spain
Distance from station: ENE 105km
Actualización: Fri, 07-Oct-2022 7:50am CEST
Lluvia intensa, Showers, Parcialmente nuboso
Lluvia intensa, Showers, Parcialmente nuboso
 Viento del SE
Viento: SE 15 km/h
Temperatura: 17°C
Rocío: 16°C
Humedad: 94%
Barómetro: 1023 hPa
Resumen: Lluvia intensa, Showers
Clouds: Parcialmente nuboso
Visibility: 2 km
Cloud details: Few Clouds 305 m
Parcialmente nuboso 457 m
Parcialmente nuboso 549 m
2022/10/07 05:50 LEMH 070550Z 13008KT 1600 +SHRA FEW010 SCT015 SCT018TCU 17/16 Q1023 RETS
 
LEIB - Ibiza/Es Codola, Spain
Distance from station: OSO 165km
Actualización: Fri, 07-Oct-2022 7:30am CEST
Few Clouds
Few Clouds
 Viento del NNE
Viento: NNE 6 km/h
Temperatura: 20°C
Rocío: 17°C
Humedad: 83%
Barómetro: 1020 hPa
Clouds: Few Clouds
Visibility: 10 km
Cloud details: Few Clouds 640 m
2022/10/07 05:30 LEIB 070530Z 03003KT 350V060 9999 FEW021CB 20/17 Q1020 TEMPO VRB12G24KT 3000 TSRA
LEBL - Barcelona Airpor, Spain
Distance from station: NNO 225km
Actualización: Fri, 07-Oct-2022 7:30am CEST
Few Clouds
Few Clouds
 Viento del NNE
Viento: NNE 13 km/h
Temperatura: 18°C
Rocío: 13°C
Humedad: 73%
Barómetro: 1023 hPa
Clouds: Few Clouds
Visibility: 10 km
Cloud details: Few Clouds 457 m
2022/10/07 05:30 LEBL 070530Z 02007KT 9999 FEW015 18/13 Q1023 NOSIG
 
LEVC - Valencia (civ/Mi, Spain
Distance from station: NO 188km
Actualización: Fri, 07-Oct-2022 7:30am CEST
Muy nuboso
Muy nuboso
 Viento del NO
Viento: NO 6 km/h
Temperatura: 18°C
Rocío: 17°C
Humedad: 94%
Barómetro: 1022 hPa
Clouds: Muy nuboso
Visibility: 10 km
Cloud details: Few Clouds 457 m
Muy nuboso 732 m
2022/10/07 05:30 LEVC 070530Z 31003KT 270V030 9999 FEW015 BKN024 18/17 Q1022 NOSIG
LEGE - Gerona/Costa Bra, Spain
Distance from station: N 276km
Actualización: Fri, 07-Oct-2022 7:30am CEST
Few Clouds
Few Clouds
 Viento del N
Viento: N 6 km/h
Temperatura: 15°C
Rocío: 14°C
Humedad: 94%
Barómetro: 1024 hPa
Clouds: Few Clouds
Visibility: 10 km
Cloud details: Few Clouds 2438 m
2022/10/07 05:30 LEGE 070530Z 01003KT 340V060 9999 FEW080 15/14 Q1024
 
LEAL - Alicante/El Alte, Spain
Distance from station: OSO 344km
Actualización: Fri, 07-Oct-2022 7:30am CEST
Despejado
Despejado
 Viento del ONO
Viento: ONO 15 km/h
Temperatura: 18°C
Rocío: 15°C
Humedad: 83%
Barómetro: 1021 hPa
Resumen: Despejado
Visibility: greater than 10 km
2022/10/07 05:30 LEAL 070530Z 30008KT 280V340 CAVOK 18/15 Q1021 NOSIG
LEAM - Almeria Airport, Spain
Distance from station: SSO 56km
Actualización: Fri, 07-Oct-2022 7:30am CEST
Despejado
Despejado
 Viento del NNO
Viento: NNO 15 km/h
Temperatura: 21°C
Rocío: 14°C
Humedad: 64%
Barómetro: 1019 hPa
Resumen: Despejado
Visibility: greater than 10 km
2022/10/07 05:30 LEAM 070530Z 33008KT 300V360 CAVOK 21/14 Q1019
 
LEZG - Zaragoza (mil/Ci, Spain
Distance from station: NO 431km
Actualización: Fri, 07-Oct-2022 7:30am CEST
Few Clouds
Few Clouds
 Viento del calm
Viento: Calma
Temperatura: 17°C
Rocío: 13°C
Humedad: 77%
Barómetro: 1024 hPa
Clouds: Few Clouds
Visibility: 10 km
Cloud details: Few Clouds 1524 m
2022/10/07 05:30 LEZG 070530Z 00000KT 9999 FEW050 17/13 Q1024
LEMD - Madrid/Barajas, Spain
Distance from station: ONO 234km
Actualización: Fri, 07-Oct-2022 7:30am CEST
Despejado
Despejado
 Viento del N
Viento: N 4 km/h
Temperatura: 12°C
Rocío: 9°C
Humedad: 82%
Barómetro: 1024 hPa
Resumen: Despejado
Visibility: greater than 10 km
2022/10/07 05:30 LEMD 070530Z 35002KT CAVOK 12/09 Q1024 NOSIG
 
LEGR - Granada Airport, Spain
Distance from station: OSO 62km
Actualización: Fri, 07-Oct-2022 7:30am CEST
Despejado
Despejado
 Viento del S
Viento: S 4 km/h
Temperatura: 12°C
Rocío: 11°C
Humedad: 94%
Barómetro: 1022 hPa
Resumen: Despejado
Visibility: greater than 10 km
2022/10/07 05:30 LEGR 070530Z 18002KT CAVOK 12/11 Q1022
LEMG - Malaga (civ/Mil), Spain
Distance from station: OSO 227km
Actualización: Fri, 07-Oct-2022 7:30am CEST
Despejado
Despejado
 Viento del O
Viento: O 17 km/h
Temperatura: 18°C
Rocío: 15°C
Humedad: 83%
Barómetro: 1020 hPa
Resumen: Despejado
Visibility: greater than 10 km
2022/10/07 05:30 LEMG 070530Z 28009KT CAVOK 18/15 Q1020 NOSIG
 
LEZL - Sevilla (civ/Mil, Spain
Distance from station: S 318km
Actualización: Fri, 07-Oct-2022 7:30am CEST
Despejado
Despejado
 Viento del NNE
Viento: NNE 9 km/h
Temperatura: 18°C
Rocío: 13°C
Humedad: 73%
Barómetro: 1019 hPa
Resumen: Despejado
Visibility: greater than 10 km
2022/10/07 05:30 LEZL 070530Z 02005KT CAVOK 18/13 Q1019 NOSIG
LEVT - Vitoria, Spain
Distance from station: NO 226km
Actualización: Fri, 07-Oct-2022 7:47am CEST
Patches of fog, Muy nuboso
Patches of fog, Muy nuboso
 Viento del calm
Viento: Calma
Temperatura: 9°C
Rocío: 9°C
Humedad: 100%
Barómetro: 1024 hPa
Resumen: Patches of Fog
Clouds: Muy nuboso
Visibility: 1 km
Cloud details: Muy nuboso 30 m
2022/10/07 05:47 LEVT 070547Z 00000KT 0800 R04/1100U R22/0400N BCFG BKN001 09/09 Q1024
 
LEBB - Bilbao/Sondica, Spain
Distance from station: NNO 235km
Actualización: Fri, 07-Oct-2022 7:30am CEST
Mist, Muy nuboso
Mist, Muy nuboso
 Viento del E
Viento: E 6 km/h
Temperatura: 14°C
Rocío: 14°C
Humedad: 100%
Barómetro: 1022 hPa
Resumen: Mist
Clouds: Muy nuboso
Visibility: 4 km
Cloud details: Muy nuboso 61 m
2022/10/07 05:30 LEBB 070530Z 10003KT 020V140 3500 BR BKN002 14/14 Q1022 TEMPO 5000 SCT002
LESO - San Sebastian/Fu, Spain
Distance from station: N 231km
Actualización: Fri, 07-Oct-2022 7:30am CEST
Despejado
Despejado
 Viento del varies
Viento: varies 2 km/h
Temperatura: 13°C
Rocío: 12°C
Humedad: 94%
Barómetro: 1022 hPa
Resumen: Despejado
Visibility: greater than 10 km
2022/10/07 05:30 LESO 070530Z VRB01KT CAVOK 13/12 Q1022
 
LEVD - Valladolid(Mil/C, Spain
Distance from station: ONO 239km
Actualización: Fri, 07-Oct-2022 7:30am CEST
Despejado
Despejado
 Viento del E
Viento: E 7 km/h
Temperatura: 10°C
Sensación frio: 9°C
Rocío: 8°C
Humedad: 88%
Barómetro: 1023 hPa
Resumen: Despejado
Visibility: greater than 10 km
2022/10/07 05:30 LEVD 070530Z 09004KT CAVOK 10/08 Q1023
LESA - Salamanca (civ/M, Spain
Distance from station: ONO 349km
Actualización: Fri, 07-Oct-2022 7:30am CEST
Despejado
Despejado
 Viento del NO
Viento: NO 2 km/h
Temperatura: 8°C
Rocío: 7°C
Humedad: 93%
Barómetro: 1023 hPa
Resumen: Despejado
Visibility: greater than 10 km
2022/10/07 05:30 LESA 070530Z 32001KT CAVOK 08/07 Q1023
 
LEXJ - Santander/Paraya, Spain
Distance from station: NNO 247km
Actualización: Fri, 07-Oct-2022 7:30am CEST
Mist, Cubierto
Mist, Cubierto
 Viento del varies
Viento: varies 4 km/h
Temperatura: 15°C
Rocío: 15°C
Humedad: 100%
Barómetro: 1022 hPa
Resumen: Mist
Clouds: Cubierto
Visibility: 4 km
Cloud details: Cubierto 427 m
2022/10/07 05:30 LEXJ 070530Z VRB02KT 4000 BR OVC014 15/15 Q1022
LEAS - Asturias/Aviles, Spain
Distance from station: NO 214km
Actualización: Fri, 07-Oct-2022 7:30am CEST
Muy nuboso
Muy nuboso
 Viento del varies
Viento: varies 2 km/h
Temperatura: 17°C
Rocío: 17°C
Humedad: 100%
Barómetro: 1022 hPa
Clouds: Muy nuboso
Visibility: 7 km
Cloud details: Few Clouds 152 m
Muy nuboso 762 m
2022/10/07 05:30 LEAS 070530Z VRB01KT 7000 FEW005 BKN025 17/17 Q1022 NOSIG
 
LECO - La Coruna/Alvedr, Spain
Distance from station: ONO 222km
Actualización: Fri, 07-Oct-2022 7:50am CEST
Partial fog, Few clouds
Partial fog, Few clouds
 Viento del varies
Viento: varies 4 km/h
Temperatura: 12°C
Rocío: 12°C
Humedad: 100%
Barómetro: 1021 hPa
Resumen: Partial Fog
Clouds: Few Clouds
Visibility: 0 km
Cloud details: Few Clouds 30 m
2022/10/07 05:50 LECO 070550Z VRB02KT 0250 R21/1900N R03/0700D PRFG FEW001 12/12 Q1021 TEMPO 8000 NSW
LEVX - Vigo/Peinador, Spain
Distance from station: O 214km
Actualización: Fri, 07-Oct-2022 7:30am CEST
Despejado
Despejado
 Viento del OSO
Viento: OSO 7 km/h
Temperatura: 16°C
Rocío: 15°C
Humedad: 94%
Barómetro: 1020 hPa
Resumen: Despejado
Visibility: greater than 10 km
2022/10/07 05:30 LEVX 070530Z 24004KT CAVOK 16/15 Q1020 NOSIG